sensor_id;sensor_type;location;lat;lon;timestamp;P1;P2;P0
72307;PMS5003;60257;42.638;23.376;2023-03-23T00:01:47;73.25;61.25;39.00
72307;PMS5003;60257;42.638;23.376;2023-03-23T00:04:17;72.25;58.25;34.25
72307;PMS5003;60257;42.638;23.376;2023-03-23T00:06:43;81.25;64.25;40.75
72307;PMS5003;60257;42.638;23.376;2023-03-23T00:09:11;68.75;57.25;37.00
72307;PMS5003;60257;42.638;23.376;2023-03-23T00:11:40;79.50;65.25;42.50
72307;PMS5003;60257;42.638;23.376;2023-03-23T00:14:08;83.50;65.25;42.00
72307;PMS5003;60257;42.638;23.376;2023-03-23T00:16:38;84.00;66.25;42.00
72307;PMS5003;60257;42.638;23.376;2023-03-23T00:19:15;81.25;64.00;41.00
72307;PMS5003;60257;42.638;23.376;2023-03-23T00:21:41;84.25;65.25;39.75
72307;PMS5003;60257;42.638;23.376;2023-03-23T00:24:12;80.75;64.00;41.25
72307;PMS5003;60257;42.638;23.376;2023-03-23T00:26:41;82.25;65.75;41.75
72307;PMS5003;60257;42.638;23.376;2023-03-23T00:31:40;74.75;58.75;36.50
72307;PMS5003;60257;42.638;23.376;2023-03-23T00:34:11;74.00;58.75;36.25
72307;PMS5003;60257;42.638;23.376;2023-03-23T00:36:37;72.50;57.50;35.25
72307;PMS5003;60257;42.638;23.376;2023-03-23T00:39:08;67.25;55.75;34.50
72307;PMS5003;60257;42.638;23.376;2023-03-23T00:41:33;68.25;55.75;33.75
72307;PMS5003;60257;42.638;23.376;2023-03-23T00:44:01;70.75;57.50;36.50
72307;PMS5003;60257;42.638;23.376;2023-03-23T00:46:27;71.00;58.25;36.25
72307;PMS5003;60257;42.638;23.376;2023-03-23T00:48:53;64.50;51.25;35.75
72307;PMS5003;60257;42.638;23.376;2023-03-23T00:51:19;72.25;59.50;38.00
72307;PMS5003;60257;42.638;23.376;2023-03-23T00:53:45;61.25;49.50;29.25
72307;PMS5003;60257;42.638;23.376;2023-03-23T00:56:12;70.25;58.75;36.00
72307;PMS5003;60257;42.638;23.376;2023-03-23T00:58:38;68.50;55.75;34.75
72307;PMS5003;60257;42.638;23.376;2023-03-23T01:01:04;55.50;46.00;29.00
72307;PMS5003;60257;42.638;23.376;2023-03-23T01:03:30;57.75;46.25;27.00
72307;PMS5003;60257;42.638;23.376;2023-03-23T01:05:56;62.50;50.75;29.75
72307;PMS5003;60257;42.638;23.376;2023-03-23T01:08:22;42.00;38.50;21.50
72307;PMS5003;60257;42.638;23.376;2023-03-23T01:10:49;52.50;45.00;27.00
72307;PMS5003;60257;42.638;23.376;2023-03-23T01:13:16;45.75;40.00;21.00
72307;PMS5003;60257;42.638;23.376;2023-03-23T01:15:42;46.75;41.25;23.50
72307;PMS5003;60257;42.638;23.376;2023-03-23T01:18:08;41.25;38.75;24.00
72307;PMS5003;60257;42.638;23.376;2023-03-23T01:20:35;39.75;38.00;25.00
72307;PMS5003;60257;42.638;23.376;2023-03-23T01:23:01;41.50;38.75;23.50
72307;PMS5003;60257;42.638;23.376;2023-03-23T01:25:28;44.00;40.25;24.50
72307;PMS5003;60257;42.638;23.376;2023-03-23T01:27:56;46.75;40.75;25.00
72307;PMS5003;60257;42.638;23.376;2023-03-23T01:30:22;47.25;40.50;26.25
72307;PMS5003;60257;42.638;23.376;2023-03-23T01:32:49;50.00;42.00;27.25
72307;PMS5003;60257;42.638;23.376;2023-03-23T01:35:15;51.50;43.25;27.00
72307;PMS5003;60257;42.638;23.376;2023-03-23T01:37:41;47.00;41.50;23.50
72307;PMS5003;60257;42.638;23.376;2023-03-23T01:40:07;53.75;45.00;28.00
72307;PMS5003;60257;42.638;23.376;2023-03-23T01:42:34;61.25;50.75;29.50
72307;PMS5003;60257;42.638;23.376;2023-03-23T01:50:48;65.25;54.00;30.25
72307;PMS5003;60257;42.638;23.376;2023-03-23T01:53:19;67.75;56.00;34.00
72307;PMS5003;60257;42.638;23.376;2023-03-23T01:55:46;66.25;55.50;34.00
72307;PMS5003;60257;42.638;23.376;2023-03-23T01:58:16;71.50;57.50;35.75
72307;PMS5003;60257;42.638;23.376;2023-03-23T02:00:45;71.75;58.25;35.25
72307;PMS5003;60257;42.638;23.376;2023-03-23T02:03:12;63.00;51.00;34.00
72307;PMS5003;60257;42.638;23.376;2023-03-23T02:05:41;69.50;56.00;34.00
72307;PMS5003;60257;42.638;23.376;2023-03-23T02:08:08;69.50;56.25;34.75
72307;PMS5003;60257;42.638;23.376;2023-03-23T02:10:36;65.00;53.50;30.00
72307;PMS5003;60257;42.638;23.376;2023-03-23T02:13:03;65.00;52.75;33.00
72307;PMS5003;60257;42.638;23.376;2023-03-23T02:16:14;67.50;55.75;34.00
72307;PMS5003;60257;42.638;23.376;2023-03-23T02:18:40;67.50;54.50;33.75
72307;PMS5003;60257;42.638;23.376;2023-03-23T02:21:33;68.50;52.50;31.25
72307;PMS5003;60257;42.638;23.376;2023-03-23T02:27:01;74.50;55.75;35.00
72307;PMS5003;60257;42.638;23.376;2023-03-23T02:34:53;59.00;48.75;29.75
72307;PMS5003;60257;42.638;23.376;2023-03-23T02:37:37;59.00;49.75;29.25
72307;PMS5003;60257;42.638;23.376;2023-03-23T02:40:25;58.75;48.75;29.50
72307;PMS5003;60257;42.638;23.376;2023-03-23T02:42:58;68.25;54.50;31.50
72307;PMS5003;60257;42.638;23.376;2023-03-23T02:45:25;60.00;50.00;30.00
72307;PMS5003;60257;42.638;23.376;2023-03-23T02:47:54;53.75;45.25;27.25
72307;PMS5003;60257;42.638;23.376;2023-03-23T02:50:22;62.75;51.00;30.00
72307;PMS5003;60257;42.638;23.376;2023-03-23T02:52:50;62.50;51.25;30.25
72307;PMS5003;60257;42.638;23.376;2023-03-23T02:55:19;62.75;46.25;30.00
72307;PMS5003;60257;42.638;23.376;2023-03-23T02:57:50;67.00;52.25;29.00
72307;PMS5003;60257;42.638;23.376;2023-03-23T03:00:17;61.25;50.50;30.25
72307;PMS5003;60257;42.638;23.376;2023-03-23T03:02:54;64.75;52.25;32.25
72307;PMS5003;60257;42.638;23.376;2023-03-23T03:05:26;64.25;52.50;31.00
72307;PMS5003;60257;42.638;23.376;2023-03-23T03:08:15;70.25;56.50;34.00
72307;PMS5003;60257;42.638;23.376;2023-03-23T03:10:46;64.75;52.25;30.75
72307;PMS5003;60257;42.638;23.376;2023-03-23T03:16:21;47.50;42.75;23.75
72307;PMS5003;60257;42.638;23.376;2023-03-23T03:19:00;53.50;46.50;29.25
72307;PMS5003;60257;42.638;23.376;2023-03-23T03:21:32;47.75;41.25;26.00
72307;PMS5003;60257;42.638;23.376;2023-03-23T03:24:02;47.00;41.75;28.00
72307;PMS5003;60257;42.638;23.376;2023-03-23T03:26:30;54.00;45.50;27.00
72307;PMS5003;60257;42.638;23.376;2023-03-23T03:28:59;53.75;44.00;26.00
72307;PMS5003;60257;42.638;23.376;2023-03-23T03:31:28;56.75;48.75;30.00
72307;PMS5003;60257;42.638;23.376;2023-03-23T03:33:57;47.25;42.50;27.25
72307;PMS5003;60257;42.638;23.376;2023-03-23T03:36:30;58.75;47.50;28.50
72307;PMS5003;60257;42.638;23.376;2023-03-23T03:39:00;56.75;45.00;28.00
72307;PMS5003;60257;42.638;23.376;2023-03-23T03:41:30;60.75;49.25;30.75
72307;PMS5003;60257;42.638;23.376;2023-03-23T03:43:56;57.00;48.50;30.25
72307;PMS5003;60257;42.638;23.376;2023-03-23T03:46:21;53.25;46.25;30.00
72307;PMS5003;60257;42.638;23.376;2023-03-23T03:48:49;53.25;45.50;30.00
72307;PMS5003;60257;42.638;23.376;2023-03-23T03:51:16;65.00;52.00;30.50
72307;PMS5003;60257;42.638;23.376;2023-03-23T03:53:42;51.75;46.50;28.75
72307;PMS5003;60257;42.638;23.376;2023-03-23T03:56:08;55.00;47.25;30.25
72307;PMS5003;60257;42.638;23.376;2023-03-23T03:58:33;56.75;46.00;28.00
72307;PMS5003;60257;42.638;23.376;2023-03-23T04:01:01;54.00;45.50;27.25
72307;PMS5003;60257;42.638;23.376;2023-03-23T04:03:28;50.25;43.50;27.50
72307;PMS5003;60257;42.638;23.376;2023-03-23T04:05:54;49.00;43.00;25.00
72307;PMS5003;60257;42.638;23.376;2023-03-23T04:08:23;52.50;46.50;28.00
72307;PMS5003;60257;42.638;23.376;2023-03-23T04:10:48;49.75;42.25;26.25
72307;PMS5003;60257;42.638;23.376;2023-03-23T04:13:14;51.25;44.75;27.00
72307;PMS5003;60257;42.638;23.376;2023-03-23T04:15:40;48.75;43.00;27.00
72307;PMS5003;60257;42.638;23.376;2023-03-23T04:18:06;49.50;43.50;25.50
72307;PMS5003;60257;42.638;23.376;2023-03-23T04:20:31;46.75;41.25;24.50
72307;PMS5003;60257;42.638;23.376;2023-03-23T04:23:00;59.75;46.25;30.00
72307;PMS5003;60257;42.638;23.376;2023-03-23T04:25:26;47.75;41.75;26.00
72307;PMS5003;60257;42.638;23.376;2023-03-23T04:27:52;45.25;42.75;26.00
72307;PMS5003;60257;42.638;23.376;2023-03-23T04:30:19;44.00;40.75;25.25
72307;PMS5003;60257;42.638;23.376;2023-03-23T04:32:47;52.25;46.75;27.75
72307;PMS5003;60257;42.638;23.376;2023-03-23T04:35:15;56.50;46.00;29.00
72307;PMS5003;60257;42.638;23.376;2023-03-23T04:37:42;49.25;43.75;29.00
72307;PMS5003;60257;42.638;23.376;2023-03-23T04:40:08;39.50;38.50;22.75
72307;PMS5003;60257;42.638;23.376;2023-03-23T04:42:38;50.50;46.00;29.00
72307;PMS5003;60257;42.638;23.376;2023-03-23T04:45:05;52.75;45.75;29.00
72307;PMS5003;60257;42.638;23.376;2023-03-23T04:47:33;44.00;41.00;26.50
72307;PMS5003;60257;42.638;23.376;2023-03-23T04:50:05;51.25;43.50;26.00
72307;PMS5003;60257;42.638;23.376;2023-03-23T04:52:37;42.25;39.00;21.25
72307;PMS5003;60257;42.638;23.376;2023-03-23T04:55:06;49.25;41.50;23.25
72307;PMS5003;60257;42.638;23.376;2023-03-23T04:57:33;52.50;44.00;25.25
72307;PMS5003;60257;42.638;23.376;2023-03-23T05:00:00;52.75;44.25;28.50
72307;PMS5003;60257;42.638;23.376;2023-03-23T05:02:29;50.25;41.75;26.00
72307;PMS5003;60257;42.638;23.376;2023-03-23T05:04:56;48.25;43.00;28.00
72307;PMS5003;60257;42.638;23.376;2023-03-23T05:07:22;48.00;41.00;28.00
72307;PMS5003;60257;42.638;23.376;2023-03-23T05:09:48;46.00;42.75;26.50
72307;PMS5003;60257;42.638;23.376;2023-03-23T05:12:14;48.50;43.00;29.50
72307;PMS5003;60257;42.638;23.376;2023-03-23T05:14:41;35.75;35.75;22.50
72307;PMS5003;60257;42.638;23.376;2023-03-23T05:17:07;49.25;42.50;28.75
72307;PMS5003;60257;42.638;23.376;2023-03-23T05:19:32;60.25;51.00;30.50
72307;PMS5003;60257;42.638;23.376;2023-03-23T05:21:58;55.00;47.25;29.75
72307;PMS5003;60257;42.638;23.376;2023-03-23T05:24:29;48.25;42.00;25.00
72307;PMS5003;60257;42.638;23.376;2023-03-23T05:27:01;48.25;43.00;29.00
72307;PMS5003;60257;42.638;23.376;2023-03-23T05:29:30;54.25;46.00;27.00
72307;PMS5003;60257;42.638;23.376;2023-03-23T05:31:56;49.25;42.50;19.75
72307;PMS5003;60257;42.638;23.376;2023-03-23T05:34:25;50.25;40.50;24.50
72307;PMS5003;60257;42.638;23.376;2023-03-23T05:36:52;53.50;45.75;30.00
72307;PMS5003;60257;42.638;23.376;2023-03-23T05:39:18;62.50;51.25;32.25
72307;PMS5003;60257;42.638;23.376;2023-03-23T05:41:44;61.50;49.50;33.00
72307;PMS5003;60257;42.638;23.376;2023-03-23T05:44:11;60.25;48.75;29.75
72307;PMS5003;60257;42.638;23.376;2023-03-23T05:46:38;59.25;49.50;30.25
72307;PMS5003;60257;42.638;23.376;2023-03-23T05:49:04;73.75;57.75;36.00
72307;PMS5003;60257;42.638;23.376;2023-03-23T05:51:29;72.75;59.25;36.75
72307;PMS5003;60257;42.638;23.376;2023-03-23T05:53:55;63.50;51.25;30.25
72307;PMS5003;60257;42.638;23.376;2023-03-23T05:56:21;74.50;57.00;36.50
72307;PMS5003;60257;42.638;23.376;2023-03-23T05:58:47;68.25;55.00;35.25
72307;PMS5003;60257;42.638;23.376;2023-03-23T06:01:13;76.25;60.75;38.00
72307;PMS5003;60257;42.638;23.376;2023-03-23T06:03:39;68.50;57.25;32.75
72307;PMS5003;60257;42.638;23.376;2023-03-23T06:06:05;68.75;55.50;36.50
72307;PMS5003;60257;42.638;23.376;2023-03-23T06:08:31;65.75;54.25;34.75
72307;PMS5003;60257;42.638;23.376;2023-03-23T06:10:56;61.50;51.00;32.75
72307;PMS5003;60257;42.638;23.376;2023-03-23T06:13:22;57.00;48.50;32.50
72307;PMS5003;60257;42.638;23.376;2023-03-23T06:15:48;55.00;47.25;29.75
72307;PMS5003;60257;42.638;23.376;2023-03-23T06:18:14;53.75;45.50;28.00
72307;PMS5003;60257;42.638;23.376;2023-03-23T06:20:40;44.00;40.00;24.00
72307;PMS5003;60257;42.638;23.376;2023-03-23T06:23:07;46.00;41.33;25.00
72307;PMS5003;60257;42.638;23.376;2023-03-23T06:25:33;42.67;38.67;23.00
72307;PMS5003;60257;42.638;23.376;2023-03-23T06:28:00;54.00;43.67;28.00
72307;PMS5003;60257;42.638;23.376;2023-03-23T06:30:25;45.33;39.33;25.00
72307;PMS5003;60257;42.638;23.376;2023-03-23T06:32:52;45.67;39.00;24.67
72307;PMS5003;60257;42.638;23.376;2023-03-23T06:35:18;46.33;41.00;27.00
72307;PMS5003;60257;42.638;23.376;2023-03-23T06:37:43;41.00;38.00;24.33
72307;PMS5003;60257;42.638;23.376;2023-03-23T06:40:09;46.00;40.00;26.33
72307;PMS5003;60257;42.638;23.376;2023-03-23T06:42:35;37.67;36.00;20.67
72307;PMS5003;60257;42.638;23.376;2023-03-23T06:45:02;37.00;35.33;24.67
72307;PMS5003;60257;42.638;23.376;2023-03-23T06:47:28;51.00;44.00;28.00
72307;PMS5003;60257;42.638;23.376;2023-03-23T06:49:56;44.67;41.00;26.00
72307;PMS5003;60257;42.638;23.376;2023-03-23T06:52:23;48.00;41.00;25.00
72307;PMS5003;60257;42.638;23.376;2023-03-23T06:54:50;51.25;42.50;27.00
72307;PMS5003;60257;42.638;23.376;2023-03-23T06:57:16;50.75;43.00;26.50
72307;PMS5003;60257;42.638;23.376;2023-03-23T06:59:42;46.00;40.75;29.00
72307;PMS5003;60257;42.638;23.376;2023-03-23T07:02:08;50.00;42.25;27.25
72307;PMS5003;60257;42.638;23.376;2023-03-23T07:04:36;46.33;41.33;25.33
72307;PMS5003;60257;42.638;23.376;2023-03-23T07:07:03;52.00;42.67;27.33
72307;PMS5003;60257;42.638;23.376;2023-03-23T07:09:29;46.00;40.75;26.00
72307;PMS5003;60257;42.638;23.376;2023-03-23T07:11:55;44.50;41.00;27.25
72307;PMS5003;60257;42.638;23.376;2023-03-23T07:14:21;52.33;45.33;29.00
72307;PMS5003;60257;42.638;23.376;2023-03-23T07:16:47;52.50;42.00;24.00
72307;PMS5003;60257;42.638;23.376;2023-03-23T07:19:13;67.50;56.25;36.00
72307;PMS5003;60257;42.638;23.376;2023-03-23T07:21:39;73.25;58.00;36.00
72307;PMS5003;60257;42.638;23.376;2023-03-23T07:24:05;61.50;51.75;32.00
72307;PMS5003;60257;42.638;23.376;2023-03-23T07:26:30;63.75;52.75;31.50
72307;PMS5003;60257;42.638;23.376;2023-03-23T07:28:56;59.25;49.75;32.25
72307;PMS5003;60257;42.638;23.376;2023-03-23T07:31:22;69.75;56.75;37.00
72307;PMS5003;60257;42.638;23.376;2023-03-23T07:33:48;67.25;55.50;35.75
72307;PMS5003;60257;42.638;23.376;2023-03-23T07:36:13;71.50;57.25;35.00
72307;PMS5003;60257;42.638;23.376;2023-03-23T07:38:38;70.00;57.25;36.00
72307;PMS5003;60257;42.638;23.376;2023-03-23T07:41:04;63.75;52.25;35.00
72307;PMS5003;60257;42.638;23.376;2023-03-23T07:43:31;67.00;54.75;35.75
72307;PMS5003;60257;42.638;23.376;2023-03-23T07:45:57;71.50;58.00;39.25
72307;PMS5003;60257;42.638;23.376;2023-03-23T07:48:22;69.50;56.50;37.00
72307;PMS5003;60257;42.638;23.376;2023-03-23T07:50:48;68.00;56.00;36.50
72307;PMS5003;60257;42.638;23.376;2023-03-23T07:53:13;66.75;54.50;32.75
72307;PMS5003;60257;42.638;23.376;2023-03-23T07:55:39;69.75;56.25;35.00
72307;PMS5003;60257;42.638;23.376;2023-03-23T07:58:04;74.75;60.00;39.00
72307;PMS5003;60257;42.638;23.376;2023-03-23T08:00:30;64.50;53.00;32.50
72307;PMS5003;60257;42.638;23.376;2023-03-23T08:02:56;67.75;54.25;33.50
72307;PMS5003;60257;42.638;23.376;2023-03-23T08:05:22;61.75;51.50;31.25
72307;PMS5003;60257;42.638;23.376;2023-03-23T08:07:50;63.50;52.25;34.00
72307;PMS5003;60257;42.638;23.376;2023-03-23T08:10:17;62.25;50.25;32.25
72307;PMS5003;60257;42.638;23.376;2023-03-23T08:12:43;64.50;53.25;34.50
72307;PMS5003;60257;42.638;23.376;2023-03-23T08:15:10;62.25;51.75;34.00
72307;PMS5003;60257;42.638;23.376;2023-03-23T08:17:40;60.50;49.50;29.50
72307;PMS5003;60257;42.638;23.376;2023-03-23T08:20:07;63.50;51.00;32.25
72307;PMS5003;60257;42.638;23.376;2023-03-23T08:22:35;59.75;48.75;30.25
72307;PMS5003;60257;42.638;23.376;2023-03-23T08:25:02;59.00;50.00;30.00
72307;PMS5003;60257;42.638;23.376;2023-03-23T08:27:28;55.25;46.00;29.25
72307;PMS5003;60257;42.638;23.376;2023-03-23T08:29:54;59.00;48.25;30.50
72307;PMS5003;60257;42.638;23.376;2023-03-23T08:32:20;61.00;51.00;31.50
72307;PMS5003;60257;42.638;23.376;2023-03-23T08:34:46;57.50;45.50;26.50
72307;PMS5003;60257;42.638;23.376;2023-03-23T08:37:12;52.33;43.33;27.33
72307;PMS5003;60257;42.638;23.376;2023-03-23T08:39:38;54.00;45.33;27.00
72307;PMS5003;60257;42.638;23.376;2023-03-23T08:42:04;56.75;47.75;30.00
72307;PMS5003;60257;42.638;23.376;2023-03-23T08:44:29;51.33;43.33;26.00
72307;PMS5003;60257;42.638;23.376;2023-03-23T08:46:55;13.67;10.00;1.00
72307;PMS5003;60257;42.638;23.376;2023-03-23T08:49:22;44.00;39.00;24.33
72307;PMS5003;60257;42.638;23.376;2023-03-23T08:51:48;39.33;34.00;23.33
72307;PMS5003;60257;42.638;23.376;2023-03-23T08:54:14;28.67;28.67;22.33
72307;PMS5003;60257;42.638;23.376;2023-03-23T08:56:39;29.00;25.33;14.67
72307;PMS5003;60257;42.638;23.376;2023-03-23T08:59:05;41.33;38.33;20.00
72307;PMS5003;60257;42.638;23.376;2023-03-23T09:01:32;32.00;32.00;18.00
72307;PMS5003;60257;42.638;23.376;2023-03-23T09:03:58;30.00;29.67;19.00
72307;PMS5003;60257;42.638;23.376;2023-03-23T09:06:25;32.33;30.33;17.33
72307;PMS5003;60257;42.638;23.376;2023-03-23T09:08:50;33.00;32.00;17.00
72307;PMS5003;60257;42.638;23.376;2023-03-23T09:11:17;35.00;34.00;23.00
72307;PMS5003;60257;42.638;23.376;2023-03-23T09:13:42;26.67;24.67;16.00
72307;PMS5003;60257;42.638;23.376;2023-03-23T09:16:08;36.00;30.00;19.00
72307;PMS5003;60257;42.638;23.376;2023-03-23T09:18:34;30.00;27.67;16.33
72307;PMS5003;60257;42.638;23.376;2023-03-23T09:21:00;28.00;25.67;14.00
72307;PMS5003;60257;42.638;23.376;2023-03-23T09:23:26;35.00;31.00;18.00
72307;PMS5003;60257;42.638;23.376;2023-03-23T09:25:52;30.00;29.00;20.33
72307;PMS5003;60257;42.638;23.376;2023-03-23T09:28:18;33.67;32.33;20.33
72307;PMS5003;60257;42.638;23.376;2023-03-23T09:30:44;22.00;21.00;14.33
72307;PMS5003;60257;42.638;23.376;2023-03-23T09:33:10;29.00;25.33;15.67
72307;PMS5003;60257;42.638;23.376;2023-03-23T09:35:36;30.00;29.33;19.00
72307;PMS5003;60257;42.638;23.376;2023-03-23T09:38:03;26.67;26.67;16.00
72307;PMS5003;60257;42.638;23.376;2023-03-23T09:40:45;27.00;27.00;14.00
72307;PMS5003;60257;42.638;23.376;2023-03-23T09:43:29;25.33;24.00;13.67
72307;PMS5003;60257;42.638;23.376;2023-03-23T09:49:02;25.33;25.33;16.33
72307;PMS5003;60257;42.638;23.376;2023-03-23T09:51:40;30.67;27.67;17.00
72307;PMS5003;60257;42.638;23.376;2023-03-23T09:56:35;29.00;24.33;16.00
72307;PMS5003;60257;42.638;23.376;2023-03-23T09:59:16;27.33;26.33;15.67
72307;PMS5003;60257;42.638;23.376;2023-03-23T10:01:48;24.67;24.67;12.67
72307;PMS5003;60257;42.638;23.376;2023-03-23T10:07:10;29.00;27.33;18.00
72307;PMS5003;60257;42.638;23.376;2023-03-23T10:09:36;25.67;25.33;14.33
72307;PMS5003;60257;42.638;23.376;2023-03-23T10:14:55;31.33;27.67;15.00
72307;PMS5003;60257;42.638;23.376;2023-03-23T10:17:39;20.00;20.00;15.33
72307;PMS5003;60257;42.638;23.376;2023-03-23T10:25:25;24.00;24.00;15.00
72307;PMS5003;60257;42.638;23.376;2023-03-23T10:28:17;19.67;18.67;11.00
72307;PMS5003;60257;42.638;23.376;2023-03-23T10:30:48;23.00;23.00;15.67
72307;PMS5003;60257;42.638;23.376;2023-03-23T10:35:53;25.67;21.67;14.67
72307;PMS5003;60257;42.638;23.376;2023-03-23T10:38:34;24.33;24.33;15.00
72307;PMS5003;60257;42.638;23.376;2023-03-23T10:41:10;24.00;23.00;14.33
72307;PMS5003;60257;42.638;23.376;2023-03-23T10:43:38;22.00;21.33;13.00
72307;PMS5003;60257;42.638;23.376;2023-03-23T10:49:01;25.00;24.00;15.00
72307;PMS5003;60257;42.638;23.376;2023-03-23T10:51:34;24.33;23.00;14.00
72307;PMS5003;60257;42.638;23.376;2023-03-23T10:54:03;24.33;22.67;16.00
72307;PMS5003;60257;42.638;23.376;2023-03-23T10:56:40;22.33;21.33;12.00
72307;PMS5003;60257;42.638;23.376;2023-03-23T10:59:13;27.67;26.00;15.00
72307;PMS5003;60257;42.638;23.376;2023-03-23T11:02:00;31.33;26.67;15.33
72307;PMS5003;60257;42.638;23.376;2023-03-23T11:04:28;26.67;26.67;14.67
72307;PMS5003;60257;42.638;23.376;2023-03-23T11:06:59;24.00;23.00;15.00
72307;PMS5003;60257;42.638;23.376;2023-03-23T11:09:38;22.33;22.00;14.00
72307;PMS5003;60257;42.638;23.376;2023-03-23T11:12:16;24.67;24.00;14.00
72307;PMS5003;60257;42.638;23.376;2023-03-23T11:14:43;21.33;19.00;12.00
72307;PMS5003;60257;42.638;23.376;2023-03-23T11:17:23;31.33;30.33;20.33
72307;PMS5003;60257;42.638;23.376;2023-03-23T11:19:50;29.33;26.67;15.67
72307;PMS5003;60257;42.638;23.376;2023-03-23T11:22:26;22.00;21.33;15.00
72307;PMS5003;60257;42.638;23.376;2023-03-23T11:24:53;26.33;25.00;15.00
72307;PMS5003;60257;42.638;23.376;2023-03-23T11:27:21;28.00;26.00;15.00
72307;PMS5003;60257;42.638;23.376;2023-03-23T11:29:52;20.33;19.33;12.00
72307;PMS5003;60257;42.638;23.376;2023-03-23T11:32:22;23.00;22.00;11.33
72307;PMS5003;60257;42.638;23.376;2023-03-23T11:34:54;25.00;23.67;14.67
72307;PMS5003;60257;42.638;23.376;2023-03-23T11:40:02;25.33;21.00;13.00
72307;PMS5003;60257;42.638;23.376;2023-03-23T11:48:18;27.67;25.33;16.33
72307;PMS5003;60257;42.638;23.376;2023-03-23T11:51:11;23.33;23.33;14.67
72307;PMS5003;60257;42.638;23.376;2023-03-23T11:54:07;25.67;25.00;16.00
72307;PMS5003;60257;42.638;23.376;2023-03-23T11:56:53;18.00;16.33;11.00
72307;PMS5003;60257;42.638;23.376;2023-03-23T11:59:27;26.67;26.67;17.00
72307;PMS5003;60257;42.638;23.376;2023-03-23T12:13:16;24.00;21.33;14.33
72307;PMS5003;60257;42.638;23.376;2023-03-23T12:19:21;23.67;23.67;15.33
72307;PMS5003;60257;42.638;23.376;2023-03-23T12:26:32;23.67;22.67;14.33
72307;PMS5003;60257;42.638;23.376;2023-03-23T12:31:59;23.33;21.33;14.33
72307;PMS5003;60257;42.638;23.376;2023-03-23T12:38:20;18.33;17.67;11.33
72307;PMS5003;60257;42.638;23.376;2023-03-23T12:41:05;26.00;26.00;15.00
72307;PMS5003;60257;42.638;23.376;2023-03-23T12:48:48;28.00;23.33;15.00
72307;PMS5003;60257;42.638;23.376;2023-03-23T12:51:27;22.00;19.33;13.67
72307;PMS5003;60257;42.638;23.376;2023-03-23T12:56:24;20.00;19.00;12.67
72307;PMS5003;60257;42.638;23.376;2023-03-23T13:02:19;22.00;21.67;14.33
72307;PMS5003;60257;42.638;23.376;2023-03-23T13:07:32;18.00;18.00;11.67
72307;PMS5003;60257;42.638;23.376;2023-03-23T13:10:14;21.33;21.33;14.33
72307;PMS5003;60257;42.638;23.376;2023-03-23T13:12:47;20.33;20.33;14.00
72307;PMS5003;60257;42.638;23.376;2023-03-23T13:20:31;20.67;20.67;14.33
72307;PMS5003;60257;42.638;23.376;2023-03-23T13:28:21;20.00;20.00;12.00
72307;PMS5003;60257;42.638;23.376;2023-03-23T13:31:03;19.00;18.67;11.00
72307;PMS5003;60257;42.638;23.376;2023-03-23T13:33:38;23.33;23.00;15.33
72307;PMS5003;60257;42.638;23.376;2023-03-23T13:36:04;19.67;19.67;12.33
72307;PMS5003;60257;42.638;23.376;2023-03-23T13:38:35;19.33;18.33;14.00
72307;PMS5003;60257;42.638;23.376;2023-03-23T13:41:09;18.67;18.67;12.00
72307;PMS5003;60257;42.638;23.376;2023-03-23T13:43:37;22.00;21.00;13.00
72307;PMS5003;60257;42.638;23.376;2023-03-23T14:01:56;24.00;22.00;13.00
72307;PMS5003;60257;42.638;23.376;2023-03-23T14:04:41;21.33;21.00;15.00
72307;PMS5003;60257;42.638;23.376;2023-03-23T14:07:11;24.33;23.00;15.00
72307;PMS5003;60257;42.638;23.376;2023-03-23T14:09:41;24.00;23.33;13.00
72307;PMS5003;60257;42.638;23.376;2023-03-23T14:12:28;25.33;23.00;15.00
72307;PMS5003;60257;42.638;23.376;2023-03-23T14:15:00;23.00;23.00;14.00
72307;PMS5003;60257;42.638;23.376;2023-03-23T14:17:30;21.33;21.33;14.00
72307;PMS5003;60257;42.638;23.376;2023-03-23T14:19:58;20.67;20.67;13.00
72307;PMS5003;60257;42.638;23.376;2023-03-23T14:22:26;22.33;20.00;12.00
72307;PMS5003;60257;42.638;23.376;2023-03-23T14:25:00;25.33;22.67;15.67
72307;PMS5003;60257;42.638;23.376;2023-03-23T14:27:34;22.33;21.67;12.33
72307;PMS5003;60257;42.638;23.376;2023-03-23T14:30:04;17.00;17.00;9.67
72307;PMS5003;60257;42.638;23.376;2023-03-23T14:32:32;21.00;21.00;13.33
72307;PMS5003;60257;42.638;23.376;2023-03-23T14:34:59;20.00;18.67;10.00
72307;PMS5003;60257;42.638;23.376;2023-03-23T14:37:32;25.00;23.67;13.33
72307;PMS5003;60257;42.638;23.376;2023-03-23T14:40:00;23.67;20.00;11.00
72307;PMS5003;60257;42.638;23.376;2023-03-23T14:42:30;22.67;21.33;13.33
72307;PMS5003;60257;42.638;23.376;2023-03-23T14:44:59;25.67;22.67;15.00
72307;PMS5003;60257;42.638;23.376;2023-03-23T14:48:26;22.67;22.33;15.00
72307;PMS5003;60257;42.638;23.376;2023-03-23T14:50:38;21.00;20.00;13.33
72307;PMS5003;60257;42.638;23.376;2023-03-23T14:53:21;20.00;19.00;14.00
72307;PMS5003;60257;42.638;23.376;2023-03-23T14:55:49;23.67;22.67;14.33
72307;PMS5003;60257;42.638;23.376;2023-03-23T14:58:21;23.33;22.00;14.33
72307;PMS5003;60257;42.638;23.376;2023-03-23T15:01:05;22.33;21.67;12.00
72307;PMS5003;60257;42.638;23.376;2023-03-23T15:03:51;22.33;22.33;14.33
72307;PMS5003;60257;42.638;23.376;2023-03-23T15:06:21;22.00;22.00;15.33
72307;PMS5003;60257;42.638;23.376;2023-03-23T15:08:51;22.00;22.00;13.00
72307;PMS5003;60257;42.638;23.376;2023-03-23T15:13:47;28.33;26.33;18.00
72307;PMS5003;60257;42.638;23.376;2023-03-23T15:16:25;25.67;25.67;16.33
72307;PMS5003;60257;42.638;23.376;2023-03-23T15:18:59;25.67;25.00;16.00
72307;PMS5003;60257;42.638;23.376;2023-03-23T15:21:32;27.00;25.67;15.00
72307;PMS5003;60257;42.638;23.376;2023-03-23T15:23:59;23.33;22.33;13.00
72307;PMS5003;60257;42.638;23.376;2023-03-23T15:26:30;23.33;21.00;13.33
72307;PMS5003;60257;42.638;23.376;2023-03-23T15:31:32;18.33;18.00;12.00
72307;PMS5003;60257;42.638;23.376;2023-03-23T15:33:59;10.00;10.00;9.00
72307;PMS5003;60257;42.638;23.376;2023-03-23T15:36:30;18.00;18.00;12.00
72307;PMS5003;60257;42.638;23.376;2023-03-23T15:38:59;14.67;14.67;8.33
72307;PMS5003;60257;42.638;23.376;2023-03-23T15:41:30;19.00;19.00;12.00
72307;PMS5003;60257;42.638;23.376;2023-03-23T15:44:09;19.67;19.67;12.00
72307;PMS5003;60257;42.638;23.376;2023-03-23T15:46:47;21.33;19.33;11.00
72307;PMS5003;60257;42.638;23.376;2023-03-23T15:49:15;25.00;22.67;12.33